Time;durP1;ratioP1;P1;durP2;ratioP2;P2;SDS_P1;SDS_P2;PMS_P1;PMS_P2;Temp;Humidity;BMP_temperature;BMP_pressure;BME280_temperature;BME280_humidity;BME280_pressure;Samples;Min_cycle;Max_cycle;Signal;HPM_P1;HPM_P2
2022/11/10 00:02:03;;;;;;;9.68;2.33;;;10.60;99.90;;;;;;5038542;28;20064;-87
2022/11/10 00:04:28;;;;;;;12.57;2.80;;;10.60;99.90;;;;;;5039346;28;20068;-87
2022/11/10 00:06:54;;;;;;;13.40;3.10;;;10.80;99.90;;;;;;5018806;28;20046;-87
2022/11/10 00:09:20;;;;;;;12.45;3.03;;;10.60;99.90;;;;;;5036445;28;20041;-87
2022/11/10 00:11:45;;;;;;;8.43;2.95;;;10.50;99.90;;;;;;5018778;28;20056;-87
2022/11/10 00:17:03;;;;;;;11.48;2.83;;;10.50;99.90;;;;;;5017478;28;20045;-87
2022/11/10 00:19:33;;;;;;;10.02;2.88;;;10.40;99.90;;;;;;5018156;28;20443;-86
2022/11/10 00:22:00;;;;;;;11.63;3.30;;;11.20;99.90;;;;;;5017628;28;20042;-87
2022/11/10 00:24:26;;;;;;;14.77;3.38;;;10.40;99.90;;;;;;5035384;28;20041;-87
2022/11/10 00:26:53;;;;;;;13.30;3.22;;;10.40;99.90;;;;;;5018067;28;20063;-87
2022/11/10 00:29:19;;;;;;;12.20;2.97;;;10.40;99.90;;;;;;5018198;28;20045;-87
2022/11/10 00:31:45;;;;;;;14.63;3.50;;;10.30;99.90;;;;;;5035326;28;20446;-87
2022/11/10 00:34:14;;;;;;;12.07;3.40;;;10.30;99.90;;;;;;5017960;28;20087;-87
2022/11/10 00:36:40;;;;;;;17.60;3.97;;;10.30;99.90;;;;;;5018583;28;20081;-87
2022/11/10 00:39:06;;;;;;;13.63;3.35;;;10.50;99.90;;;;;;5002781;28;20049;-87
2022/11/10 00:41:32;;;;;;;13.88;3.30;;;10.40;99.90;;;;;;5018246;28;20084;-86
2022/11/10 00:43:57;;;;;;;9.60;3.30;;;11.00;99.90;;;;;;5034621;28;20077;-87
2022/11/10 00:46:23;;;;;;;14.07;3.40;;;10.40;99.90;;;;;;5016198;28;20049;-87
2022/11/10 00:48:49;;;;;;;12.90;3.38;;;11.60;99.90;;;;;;5033374;28;20447;-87
2022/11/10 00:51:28;;;;;;;14.77;3.20;;;10.40;99.90;;;;;;5016858;28;20040;-87
2022/11/10 00:53:54;;;;;;;14.30;3.40;;;11.00;99.90;;;;;;5036561;28;20049;-87
2022/11/10 00:56:21;;;;;;;13.43;3.55;;;10.30;99.90;;;;;;5037437;28;20067;-87
2022/11/10 00:58:47;;;;;;;12.93;2.88;;;10.30;99.90;;;;;;5055818;28;20402;-87
2022/11/10 01:01:14;;;;;;;12.13;3.20;;;10.40;99.90;;;;;;5056144;28;20123;-87
2022/11/10 01:03:41;;;;;;;12.77;3.30;;;10.50;99.90;;;;;;5054151;28;20076;-86
2022/11/10 01:06:09;;;;;;;12.15;3.25;;;10.40;99.90;;;;;;5020527;28;20062;-87
2022/11/10 01:08:36;;;;;;;13.05;3.45;;;10.40;99.90;;;;;;5054951;28;20402;-87
2022/11/10 01:11:07;;;;;;;13.20;3.30;;;10.40;99.90;;;;;;5038130;28;20041;-87
2022/11/10 01:13:33;;;;;;;14.98;3.63;;;10.40;99.90;;;;;;5055994;28;20139;-87
2022/11/10 01:16:06;;;;;;;12.57;3.60;;;10.30;99.90;;;;;;5038249;28;20450;-86
2022/11/10 01:18:32;;;;;;;16.73;3.78;;;10.40;99.90;;;;;;5054837;28;20351;-86
2022/11/10 01:20:58;;;;;;;14.65;3.85;;;10.30;99.90;;;;;;5055093;28;20045;-87
2022/11/10 01:23:23;;;;;;;14.38;3.35;;;10.40;99.90;;;;;;5053886;28;20052;-87
2022/11/10 01:25:49;;;;;;;15.98;4.35;;;10.80;99.90;;;;;;5054622;28;20110;-87
2022/11/10 01:28:15;;;;;;;12.90;4.22;;;10.40;99.90;;;;;;5019999;28;20057;-87
2022/11/10 01:30:40;;;;;;;14.07;3.60;;;10.30;99.90;;;;;;5000611;28;20052;-87
2022/11/10 01:33:06;;;;;;;13.10;3.70;;;10.50;99.90;;;;;;5016306;28;20044;-87
2022/11/10 01:35:33;;;;;;;17.77;4.35;;;10.50;99.90;;;;;;5016573;28;20124;-87
2022/11/10 01:37:59;;;;;;;15.32;3.92;;;11.60;99.90;;;;;;5016479;28;20041;-87
2022/11/10 01:40:25;;;;;;;21.23;4.78;;;11.70;99.90;;;;;;5016293;28;20053;-87
2022/11/10 01:42:53;;;;;;;14.13;3.60;;;10.30;99.90;;;;;;5016347;28;20041;-86
2022/11/10 01:45:40;;;;;;;14.40;3.85;;;10.30;99.90;;;;;;5033576;28;20132;-87
2022/11/10 01:48:07;;;;;;;13.15;4.07;;;11.10;99.90;;;;;;5032894;28;20046;-86
2022/11/10 01:50:37;;;;;;;14.75;4.25;;;10.90;99.90;;;;;;5033825;28;20053;-87
2022/11/10 01:53:08;;;;;;;19.50;4.38;;;11.10;99.90;;;;;;5034109;28;20038;-87
2022/11/10 01:55:36;;;;;;;17.67;5.78;;;11.20;99.90;;;;;;5034928;28;20077;-87
2022/11/10 01:58:01;;;;;;;15.15;4.40;;;10.20;99.90;;;;;;5016040;28;20056;-87
2022/11/10 02:00:27;;;;;;;17.92;4.20;;;10.80;99.90;;;;;;5031603;28;20041;-87
2022/11/10 02:03:06;;;;;;;16.52;4.78;;;10.70;99.90;;;;;;5057587;28;20045;-86
2022/11/10 02:05:33;;;;;;;19.13;4.22;;;11.20;99.90;;;;;;5055066;28;20040;-86
2022/11/10 02:07:59;;;;;;;16.58;4.32;;;11.00;99.90;;;;;;5037147;28;20455;-87
2022/11/10 02:10:25;;;;;;;19.25;4.57;;;10.10;99.90;;;;;;5020062;28;20045;-87
2022/11/10 02:12:51;;;;;;;13.82;4.50;;;11.10;99.90;;;;;;5053186;28;20513;-87
2022/11/10 02:15:17;;;;;;;15.50;4.00;;;10.50;99.90;;;;;;5052481;28;20037;-87
2022/11/10 02:17:45;;;;;;;16.58;4.68;;;10.10;99.90;;;;;;5034039;28;20049;-86
2022/11/10 02:20:14;;;;;;;21.15;5.07;;;10.20;99.90;;;;;;5051058;28;20040;-87
2022/11/10 02:22:40;;;;;;;16.73;4.63;;;10.10;99.90;;;;;;5035922;28;20414;-87
2022/11/10 02:25:06;;;;;;;16.08;4.57;;;10.10;99.90;;;;;;5036810;28;20045;-87
2022/11/10 02:27:32;;;;;;;15.98;4.63;;;10.10;99.90;;;;;;5054452;28;20037;-87
2022/11/10 02:29:58;;;;;;;17.58;5.05;;;10.10;99.90;;;;;;5035911;28;20051;-87
2022/11/10 02:32:24;;;;;;;19.00;5.15;;;10.10;99.90;;;;;;5034976;28;20073;-87
2022/11/10 02:34:50;;;;;;;20.60;5.63;;;11.20;99.90;;;;;;5036749;28;20469;-87
2022/11/10 02:37:16;;;;;;;18.25;4.78;;;10.00;99.90;;;;;;5054255;28;20049;-87
2022/11/10 02:39:41;;;;;;;16.58;4.68;;;10.00;99.90;;;;;;5036877;28;20045;-87
2022/11/10 02:42:09;;;;;;;18.08;5.80;;;10.00;99.90;;;;;;5035284;28;20044;-85
2022/11/10 02:44:41;;;;;;;17.52;5.25;;;11.30;99.90;;;;;;5052826;28;20053;-87
2022/11/10 02:47:06;;;;;;;13.85;4.90;;;10.00;99.90;;;;;;5035089;28;20037;-87
2022/11/10 02:49:32;;;;;;;15.88;4.32;;;11.10;99.90;;;;;;5033938;28;20041;-87
2022/11/10 02:51:58;;;;;;;18.50;5.20;;;10.00;99.90;;;;;;5036635;28;20033;-87
2022/11/10 02:54:24;;;;;;;20.38;5.20;;;10.10;99.90;;;;;;5036235;28;20481;-86
2022/11/10 02:56:49;;;;;;;20.58;5.07;;;10.00;99.90;;;;;;5053366;28;20052;-87
2022/11/10 02:59:15;;;;;;;19.33;4.80;;;10.30;99.90;;;;;;5034886;28;20057;-87
2022/11/10 03:01:40;;;;;;;14.43;5.60;;;10.00;99.90;;;;;;5034831;28;20049;-87
2022/11/10 03:04:06;;;;;;;16.40;4.57;;;11.20;99.90;;;;;;5018815;28;20049;-87
2022/11/10 03:06:32;;;;;;;21.17;5.03;;;10.00;99.90;;;;;;5034976;28;20075;-87
2022/11/10 03:08:58;;;;;;;20.08;5.22;;;10.00;99.90;;;;;;5035848;28;20056;-87
2022/11/10 03:11:24;;;;;;;15.35;4.93;;;11.30;99.90;;;;;;5054799;28;20127;-86
2022/11/10 03:13:49;;;;;;;20.00;5.50;;;10.20;99.90;;;;;;5056513;28;20080;-86
2022/11/10 03:16:15;;;;;;;16.08;4.78;;;10.00;99.90;;;;;;5052467;28;20041;-86
2022/11/10 03:18:41;;;;;;;19.15;5.10;;;11.00;99.90;;;;;;5035014;28;20052;-87
2022/11/10 03:21:07;;;;;;;24.08;5.70;;;10.00;99.90;;;;;;5052662;28;20045;-87
2022/11/10 03:23:34;;;;;;;18.50;5.22;;;10.00;99.90;;;;;;5034735;28;20041;-87
2022/11/10 03:26:03;;;;;;;17.13;5.30;;;10.00;99.90;;;;;;5053493;28;20132;-86
2022/11/10 03:28:28;;;;;;;22.42;5.22;;;11.30;99.90;;;;;;5052553;28;20048;-87
2022/11/10 03:30:54;;;;;;;23.65;5.28;;;10.00;99.90;;;;;;5052313;28;20490;-87
2022/11/10 03:33:20;;;;;;;16.35;5.00;;;10.00;99.90;;;;;;5017958;28;20044;-87
2022/11/10 03:35:45;;;;;;;15.70;4.90;;;10.00;99.90;;;;;;5056064;28;20044;-86
2022/11/10 03:38:11;;;;;;;14.27;4.50;;;11.00;99.90;;;;;;5056135;28;20037;-87
2022/11/10 03:40:36;;;;;;;23.20;5.45;;;10.00;99.90;;;;;;5057101;28;20041;-87
2022/11/10 03:43:02;;;;;;;17.33;5.28;;;10.00;99.90;;;;;;5057375;28;20064;-87
2022/11/10 03:45:28;;;;;;;17.58;5.53;;;10.00;99.90;;;;;;5057386;28;20040;-86
2022/11/10 03:47:53;;;;;;;21.25;5.30;;;10.00;99.90;;;;;;5057056;28;20047;-87
2022/11/10 03:50:19;;;;;;;19.33;5.13;;;10.00;99.90;;;;;;5039181;28;20048;-86
2022/11/10 03:52:45;;;;;;;15.38;5.03;;;10.60;99.90;;;;;;5037976;28;20049;-87
2022/11/10 03:55:14;;;;;;;20.45;4.60;;;10.00;99.90;;;;;;5055782;28;20493;-86
2022/11/10 03:57:40;;;;;;;16.35;5.40;;;11.00;99.90;;;;;;5038254;28;20048;-87
2022/11/10 04:00:06;;;;;;;16.55;4.93;;;11.20;99.90;;;;;;5020998;28;20486;-86
2022/11/10 04:02:32;;;;;;;15.13;4.63;;;10.00;99.90;;;;;;5038045;28;20159;-86
2022/11/10 04:10:26;;;;;;;17.52;4.95;;;9.90;99.90;;;;;;5055782;28;20045;-87
2022/11/10 04:15:42;;;;;;;22.23;4.50;;;10.00;99.90;;;;;;5055715;28;20049;-87
2022/11/10 04:18:25;;;;;;;17.52;4.80;;;10.40;99.90;;;;;;5055551;28;20045;-87
2022/11/10 04:21:01;;;;;;;17.73;5.35;;;10.50;99.90;;;;;;5055703;28;20146;-86
2022/11/10 04:23:30;;;;;;;17.02;4.30;;;10.70;99.90;;;;;;5045364;28;20131;-86
2022/11/10 04:28:53;;;;;;;18.20;4.93;;;10.00;99.90;;;;;;5076823;28;20048;-86
2022/11/10 04:31:21;;;;;;;20.48;5.18;;;10.00;99.90;;;;;;5076704;28;20480;-87
2022/11/10 04:33:47;;;;;;;21.48;5.10;;;10.00;99.90;;;;;;5057293;28;20044;-87
2022/11/10 04:36:16;;;;;;;19.17;4.95;;;10.10;99.90;;;;;;5055902;28;20102;-87
2022/11/10 04:38:41;;;;;;;21.67;5.80;;;10.90;99.90;;;;;;5077510;28;20119;-86
2022/11/10 04:41:07;;;;;;;19.17;5.30;;;11.40;99.90;;;;;;5074242;28;20128;-87
2022/11/10 04:43:34;;;;;;;21.92;5.40;;;10.00;99.90;;;;;;5052107;28;20457;-87
2022/11/10 04:46:00;;;;;;;20.27;6.03;;;11.20;99.90;;;;;;5055874;28;20053;-87
2022/11/10 04:48:26;;;;;;;21.48;6.00;;;10.00;99.90;;;;;;5056250;28;20041;-87
2022/11/10 04:50:52;;;;;;;17.58;6.05;;;11.00;99.90;;;;;;5038200;28;20143;-87
2022/11/10 04:53:18;;;;;;;19.98;5.68;;;10.10;99.90;;;;;;5055054;28;20044;-87
2022/11/10 04:55:45;;;;;;;21.08;6.00;;;11.60;99.90;;;;;;5037022;28;20458;-86
2022/11/10 04:58:10;;;;;;;17.95;6.30;;;10.10;99.90;;;;;;5054916;28;20067;-87
2022/11/10 05:00:37;;;;;;;21.45;6.05;;;11.60;99.90;;;;;;5036911;28;20346;-87
2022/11/10 05:03:05;;;;;;;19.63;6.10;;;10.20;99.90;;;;;;5019826;28;20049;-87
2022/11/10 05:05:31;;;;;;;17.15;5.70;;;10.20;99.90;;;;;;5054494;28;20048;-87
2022/11/10 05:07:57;;;;;;;22.10;6.32;;;10.30;99.90;;;;;;5036724;28;20052;-87
2022/11/10 05:10:24;;;;;;;25.73;6.10;;;10.30;99.90;;;;;;5035755;28;20033;-86
2022/11/10 05:12:53;;;;;;;25.60;6.70;;;11.80;99.90;;;;;;5054158;28;20087;-87
2022/11/10 05:15:19;;;;;;;20.95;6.22;;;10.30;99.90;;;;;;5052972;28;20060;-86
2022/11/10 05:17:53;;;;;;;20.38;5.15;;;10.30;99.90;;;;;;5035942;28;20124;-86
2022/11/10 05:20:20;;;;;;;21.65;6.50;;;10.40;99.90;;;;;;5054380;28;20111;-87
2022/11/10 05:23:36;;;;;;;22.75;6.07;;;11.50;99.90;;;;;;5054714;28;20053;-86
2022/11/10 05:25:35;;;;;;;21.13;5.80;;;10.90;99.90;;;;;;5055531;28;20045;-87
2022/11/10 05:28:02;;;;;;;26.90;5.07;;;10.40;99.90;;;;;;5020881;28;20045;-86
2022/11/10 05:30:28;;;;;;;15.65;6.22;;;10.40;99.90;;;;;;5054301;28;20052;-86
2022/11/10 05:32:54;;;;;;;23.10;5.88;;;10.80;99.90;;;;;;5053371;28;20394;-87
2022/11/10 05:35:19;;;;;;;22.85;5.63;;;10.40;99.90;;;;;;5055359;28;20128;-86
2022/11/10 05:37:45;;;;;;;21.15;5.35;;;11.10;99.90;;;;;;5020498;28;20051;-87
2022/11/10 05:40:11;;;;;;;20.00;5.80;;;10.40;99.90;;;;;;5055129;28;20436;-87
2022/11/10 05:42:48;;;;;;;25.75;5.68;;;10.70;99.90;;;;;;5053659;28;20115;-86
2022/11/10 05:45:14;;;;;;;22.13;5.57;;;10.90;99.90;;;;;;5035736;28;20053;-87
2022/11/10 05:47:40;;;;;;;23.08;6.10;;;11.90;99.90;;;;;;5053466;28;20052;-87
2022/11/10 05:50:07;;;;;;;20.33;5.50;;;10.40;99.90;;;;;;5054199;28;20584;-87
2022/11/10 05:52:33;;;;;;;27.50;5.75;;;10.40;99.90;;;;;;5053911;28;20116;-87
2022/11/10 05:54:59;;;;;;;18.67;5.00;;;10.40;99.90;;;;;;5053434;28;20041;-87
2022/11/10 05:57:25;;;;;;;20.13;5.68;;;10.50;99.90;;;;;;5034937;28;20053;-87
2022/11/10 05:59:50;;;;;;;25.35;5.15;;;11.50;99.90;;;;;;5035318;28;20059;-87
2022/11/10 06:02:16;;;;;;;23.45;4.75;;;10.50;99.90;;;;;;5052920;28;20041;-86
2022/11/10 06:04:41;;;;;;;19.15;4.57;;;11.50;99.90;;;;;;5053435;28;20048;-86
2022/11/10 06:07:07;;;;;;;22.15;4.60;;;10.50;99.90;;;;;;5052816;28;20072;-87
2022/11/10 06:09:33;;;;;;;23.58;4.88;;;11.50;99.90;;;;;;5054202;28;20040;-85
2022/11/10 06:12:00;;;;;;;25.38;6.28;;;10.50;99.90;;;;;;5053874;28;20053;-85
2022/11/10 06:14:26;;;;;;;21.80;4.57;;;10.50;99.90;;;;;;5053300;28;20091;-84
2022/11/10 06:16:51;;;;;;;18.38;4.50;;;10.60;99.90;;;;;;5035256;28;20103;-86
2022/11/10 06:19:17;;;;;;;19.95;4.30;;;10.50;99.90;;;;;;5053005;28;20044;-85
2022/11/10 06:21:43;;;;;;;18.38;4.80;;;10.50;99.90;;;;;;5035362;28;20501;-85
2022/11/10 06:24:09;;;;;;;17.92;4.38;;;10.50;99.90;;;;;;5052400;28;20045;-85
2022/11/10 06:26:35;;;;;;;19.77;4.57;;;10.50;99.90;;;;;;5033284;28;20037;-85
2022/11/10 06:29:01;;;;;;;21.55;4.40;;;10.50;99.90;;;;;;5034605;28;20401;-85
2022/11/10 06:31:27;;;;;;;22.50;5.25;;;10.60;99.90;;;;;;5018505;28;20037;-85
2022/11/10 06:33:53;;;;;;;22.83;3.92;;;11.30;99.90;;;;;;5053099;28;20064;-87
2022/11/10 06:36:18;;;;;;;17.23;4.53;;;11.70;99.90;;;;;;5035498;28;20040;-85
2022/11/10 06:38:44;;;;;;;24.40;4.47;;;10.60;99.90;;;;;;5036822;28;20040;-85
2022/11/10 06:41:09;;;;;;;20.63;4.85;;;10.60;99.90;;;;;;5054346;28;20037;-85
2022/11/10 06:43:35;;;;;;;21.80;4.50;;;10.60;99.90;;;;;;5052113;28;20049;-86
2022/11/10 06:46:01;;;;;;;22.73;4.95;;;11.40;99.90;;;;;;5035114;28;20040;-87
2022/11/10 06:48:26;;;;;;;22.40;4.93;;;10.60;99.90;;;;;;5035409;28;20041;-86
2022/11/10 06:50:52;;;;;;;20.63;4.78;;;10.70;99.90;;;;;;5052830;28;20029;-86
2022/11/10 06:53:17;;;;;;;18.35;4.18;;;11.70;99.90;;;;;;5034941;28;20155;-86
2022/11/10 06:55:43;;;;;;;26.02;4.90;;;10.70;99.90;;;;;;5054135;28;20045;-86
2022/11/10 06:58:09;;;;;;;18.75;4.40;;;10.70;99.90;;;;;;5054336;28;20414;-86
2022/11/10 07:00:35;;;;;;;23.15;4.63;;;11.10;99.90;;;;;;5035502;28;20130;-86
2022/11/10 07:03:03;;;;;;;20.10;4.95;;;10.70;99.90;;;;;;5034765;28;20191;-88
2022/11/10 07:05:29;;;;;;;18.65;4.60;;;10.70;99.90;;;;;;5052612;28;20048;-87
2022/11/10 07:07:54;;;;;;;25.55;5.43;;;10.90;99.90;;;;;;5036628;28;20045;-87
2022/11/10 07:10:20;;;;;;;22.40;5.40;;;11.70;99.90;;;;;;5038943;28;20074;-87
2022/11/10 07:12:45;;;;;;;22.38;5.68;;;11.30;99.90;;;;;;5040043;28;20033;-87
2022/11/10 07:15:11;;;;;;;23.58;4.72;;;10.70;99.90;;;;;;5039323;28;20049;-86
2022/11/10 07:17:40;;;;;;;29.25;5.25;;;12.10;99.90;;;;;;5055778;28;20500;-87
2022/11/10 07:20:07;;;;;;;21.55;4.63;;;10.70;99.90;;;;;;5038067;28;20052;-87
2022/11/10 07:22:32;;;;;;;23.77;4.85;;;10.80;99.90;;;;;;5055957;28;20123;-87
2022/11/10 07:24:58;;;;;;;18.17;4.50;;;10.90;99.90;;;;;;5056971;28;20127;-87
2022/11/10 07:27:23;;;;;;;19.85;4.18;;;11.10;99.90;;;;;;5023574;28;20049;-87
2022/11/10 07:29:49;;;;;;;23.05;4.68;;;10.90;99.90;;;;;;5057261;28;20052;-86
2022/11/10 07:32:15;;;;;;;17.80;4.70;;;10.90;99.90;;;;;;5057110;28;20045;-86
2022/11/10 07:34:40;;;;;;;24.92;5.53;;;10.90;99.90;;;;;;5056844;28;20068;-86
2022/11/10 07:37:06;;;;;;;28.33;5.20;;;10.90;99.90;;;;;;5022069;28;20040;-87
2022/11/10 07:39:31;;;;;;;21.48;5.80;;;10.90;99.90;;;;;;5038098;28;20401;-86
2022/11/10 07:41:57;;;;;;;16.42;4.35;;;10.90;99.90;;;;;;5037883;28;20092;-87
2022/11/10 07:44:23;;;;;;;22.25;4.70;;;10.90;99.90;;;;;;5048821;28;20045;-86
2022/11/10 07:46:48;;;;;;;19.50;4.95;;;10.90;99.90;;;;;;5058921;28;20464;-86
2022/11/10 07:49:14;;;;;;;28.95;5.20;;;10.90;99.90;;;;;;5059666;28;20040;-87
2022/11/10 07:51:41;;;;;;;20.25;4.85;;;11.10;99.90;;;;;;5076279;28;20087;-87
2022/11/10 07:54:07;;;;;;;20.70;5.15;;;11.00;99.90;;;;;;5058117;28;20078;-86
2022/11/10 07:56:32;;;;;;;16.95;4.10;;;11.00;99.90;;;;;;5075889;28;20124;-86
2022/11/10 07:58:58;;;;;;;18.35;4.68;;;11.10;99.90;;;;;;5075146;28;20501;-87
2022/11/10 08:01:24;;;;;;;25.17;4.10;;;11.10;99.90;;;;;;5055509;28;20053;-87
2022/11/10 08:03:49;;;;;;;23.00;4.78;;;11.10;99.90;;;;;;5055909;28;20048;-87
2022/11/10 08:06:15;;;;;;;20.27;4.10;;;11.10;99.90;;;;;;5055536;28;20033;-86
2022/11/10 08:08:41;;;;;;;22.15;4.68;;;11.60;99.90;;;;;;5054303;28;20033;-86
2022/11/10 08:11:06;;;;;;;20.02;4.78;;;11.30;99.90;;;;;;5054512;28;20087;-86
2022/11/10 08:13:32;;;;;;;27.67;5.32;;;11.40;99.90;;;;;;5055180;28;20375;-87
2022/11/10 08:15:58;;;;;;;20.23;4.68;;;11.70;99.90;;;;;;5056222;28;20040;-87
2022/11/10 08:18:24;;;;;;;21.88;4.88;;;11.50;99.90;;;;;;5056153;28;20049;-87
2022/11/10 08:20:51;;;;;;;19.77;5.25;;;11.60;99.90;;;;;;5054401;28;20079;-86
2022/11/10 08:23:17;;;;;;;22.45;5.13;;;11.80;99.90;;;;;;5055386;28;20044;-87
2022/11/10 08:25:43;;;;;;;22.75;4.85;;;12.70;99.90;;;;;;5055948;28;20084;-86
2022/11/10 08:28:10;;;;;;;23.77;4.38;;;;;;;;;;5055537;28;20120;-85
2022/11/10 08:30:37;;;;;;;19.30;4.50;;;;;;;;;;5055151;28;20041;-86
2022/11/10 08:33:04;;;;;;;16.92;4.15;;;;;;;;;;5055972;28;20041;-86
2022/11/10 08:35:31;;;;;;;17.63;4.97;;;;;;;;;;5039272;28;20098;-86
2022/11/10 08:37:57;;;;;;;14.80;4.60;;;;;;;;;;5038689;28;20045;-88
2022/11/10 08:40:26;;;;;;;13.30;3.83;;;;;;;;;;5037631;28;20081;-86
2022/11/10 08:43:00;;;;;;;15.60;4.47;;;;;;;;;;5056234;28;20068;-87
2022/11/10 08:45:26;;;;;;;15.93;3.75;;;;;;;;;;5039583;28;20049;-88
2022/11/10 08:47:56;;;;;;;18.35;5.05;;;;;;;;;;5038263;28;20099;-88
2022/11/10 08:50:22;;;;;;;18.65;4.03;;;;;;;;;;5021162;28;20048;-88
2022/11/10 08:52:48;;;;;;;17.63;3.92;;;;;;;;;;5038475;28;20124;-88
2022/11/10 08:55:14;;;;;;;16.60;4.00;;;;;;;;;;5037827;28;20449;-88
2022/11/10 08:57:40;;;;;;;17.08;4.00;;;;;;;;;;5055855;28;20525;-88
2022/11/10 09:00:07;;;;;;;13.10;3.50;;;;;;;;;;5056691;28;20053;-88
2022/11/10 09:02:33;;;;;;;17.23;4.30;;;;;;;;;;5039846;28;20116;-88
2022/11/10 09:04:59;;;;;;;19.65;3.80;;;;;;;;;;5052839;28;20132;-89
2022/11/10 09:07:25;;;;;;;16.95;3.92;;;;;;;;;;5037497;28;20045;-88
2022/11/10 09:09:51;;;;;;;15.90;4.10;;;;;;;;;;5017848;28;20060;-89
2022/11/10 09:12:18;;;;;;;15.98;3.75;;;;;;;;;;5035914;28;20037;-88
2022/11/10 09:14:44;;;;;;;14.10;4.07;;;;;;;;;;5036002;28;20041;-88
2022/11/10 09:17:11;;;;;;;17.75;3.92;;;;;;;;;;5017717;28;20046;-89
2022/11/10 09:19:37;;;;;;;16.17;4.05;;;;;;;;;;5035336;28;20072;-88
2022/11/10 09:22:03;;;;;;;12.00;3.78;;;;;;;;;;5017823;28;20060;-89
2022/11/10 09:24:29;;;;;;;14.70;3.90;;;;;;;;;;5036700;28;20133;-88
2022/11/10 09:26:55;;;;;;;13.23;3.53;;;;;;;;;;5019031;28;20045;-88
2022/11/10 09:29:21;;;;;;;13.68;3.25;;;;;;;;;;5036686;28;20045;-89
2022/11/10 09:31:48;;;;;;;20.33;4.35;;;;;;;;;;5018231;28;20052;-88
2022/11/10 09:34:14;;;;;;;20.80;5.40;;;;;;;;;;5018214;28;20049;-89
2022/11/10 09:36:40;;;;;;;15.52;3.92;;;;;;;;;;5018027;28;20045;-89
2022/11/10 09:39:06;;;;;;;16.38;3.85;;;;;;;;;;5035359;28;20060;-89
2022/11/10 09:41:32;;;;;;;15.70;4.57;;;14.70;99.90;;;;;;5017334;28;20425;-88
2022/11/10 09:44:02;;;;;;;19.05;4.55;;;16.60;99.90;;;;;;5024360;28;20143;-88
2022/11/10 09:46:35;;;;;;;15.75;4.60;;;16.20;99.90;;;;;;5037654;28;20459;-88
2022/11/10 09:49:43;;;;;;;23.13;5.45;;;16.00;99.90;;;;;;5055031;28;20117;-88
2022/11/10 09:52:10;;;;;;;18.45;4.88;;;15.60;99.90;;;;;;5026562;28;20053;-88
2022/11/10 09:54:44;;;;;;;16.88;4.63;;;15.20;99.90;;;;;;5057155;28;20132;-89
2022/11/10 09:57:14;;;;;;;20.80;5.45;;;14.90;99.90;;;;;;5023719;28;20051;-89
2022/11/10 09:59:42;;;;;;;18.80;5.75;;;15.30;99.90;;;;;;5037593;28;20080;-89
2022/11/10 10:02:21;;;;;;;18.88;6.30;;;14.40;99.90;;;;;;5036870;28;20053;-89
2022/11/10 10:05:09;;;;;;;19.80;5.93;;;14.30;99.90;;;;;;5016532;28;20056;-88
2022/11/10 10:08:02;;;;;;;18.40;6.28;;;14.10;99.90;;;;;;5034987;28;20033;-88
2022/11/10 10:10:45;;;;;;;20.92;6.43;;;14.00;99.90;;;;;;5034588;28;20038;-88
2022/11/10 10:13:52;;;;;;;22.30;6.05;;;14.00;99.90;;;;;;5016844;28;20056;-89
2022/11/10 10:16:37;;;;;;;;;;;14.00;99.90;;;;;;5015620;28;20080;-89
2022/11/10 10:19:20;;;;;;;23.83;7.38;;;14.10;99.90;;;;;;5017049;28;19928;-88
2022/11/10 10:22:22;;;;;;;16.00;5.78;;;14.00;99.90;;;;;;5034358;28;20132;-88
2022/11/10 10:24:52;;;;;;;19.02;6.10;;;14.10;99.90;;;;;;5018297;28;20049;-88
2022/11/10 10:27:24;;;;;;;20.42;6.22;;;14.60;99.90;;;;;;5018460;28;20072;-89
2022/11/10 10:29:51;;;;;;;21.33;5.75;;;14.40;99.90;;;;;;5035499;28;20055;-89
2022/11/10 10:32:17;;;;;;;19.58;5.63;;;14.20;99.90;;;;;;5000945;28;20098;-88
2022/11/10 10:34:44;;;;;;;18.33;5.45;;;15.00;99.90;;;;;;5034411;28;20406;-88
2022/11/10 10:37:38;;;;;;;17.70;6.47;;;14.80;99.90;;;;;;5034105;28;20045;-89
2022/11/10 10:40:04;;;;;;;23.95;5.90;;;14.40;99.90;;;;;;5015984;28;20501;-89
2022/11/10 10:42:35;;;;;;;19.63;5.80;;;14.70;99.90;;;;;;5033819;28;20366;-89
2022/11/10 10:45:13;;;;;;;18.30;5.78;;;14.90;99.90;;;;;;5032941;28;20050;-89
2022/11/10 10:47:40;;;;;;;19.65;5.40;;;;;;;;;;5016138;28;20148;-89
2022/11/10 10:50:24;;;;;;;18.02;5.00;;;;;;;;;;5016303;28;20053;-88
2022/11/10 10:53:07;;;;;;;17.55;5.40;;;;;;;;;;5015824;28;20132;-88
2022/11/10 10:55:33;;;;;;;19.45;5.20;;;;;;;;;;5015745;28;20049;-88
2022/11/10 10:58:03;;;;;;;17.40;5.63;;;15.10;99.90;;;;;;5033634;28;20049;-88
2022/11/10 11:00:28;;;;;;;21.15;5.63;;;16.30;99.90;;;;;;5012846;28;20075;-88
2022/11/10 11:03:10;;;;;;;18.45;5.40;;;15.50;99.90;;;;;;5055282;28;20045;-88
2022/11/10 11:05:36;;;;;;;21.85;5.85;;;15.20;99.90;;;;;;5061690;28;20037;-88
2022/11/10 11:08:02;;;;;;;19.73;5.22;;;15.20;99.90;;;;;;5055560;28;20094;-88
2022/11/10 11:10:34;;;;;;;22.48;5.25;;;15.40;99.90;;;;;;5058414;28;20048;-89
2022/11/10 11:13:13;;;;;;;14.57;4.85;;;15.70;99.90;;;;;;5046314;28;20040;-88
2022/11/10 11:15:39;;;;;;;20.58;5.20;;;15.70;99.90;;;;;;5056591;28;20043;-89
2022/11/10 11:18:13;;;;;;;21.98;6.05;;;15.50;99.90;;;;;;5055174;28;20486;-88
2022/11/10 11:20:47;;;;;;;21.67;5.07;;;15.40;99.90;;;;;;5038644;28;20052;-88
2022/11/10 11:23:26;;;;;;;20.33;5.20;;;15.00;99.90;;;;;;5055689;28;20306;-88
2022/11/10 11:25:56;;;;;;;16.77;4.70;;;14.90;99.90;;;;;;5071727;28;20060;-89
2022/11/10 11:28:38;;;;;;;17.25;4.88;;;14.70;99.90;;;;;;5073202;28;20484;-88
2022/11/10 11:31:22;;;;;;;19.13;4.88;;;14.60;99.90;;;;;;5054833;28;20049;-88
2022/11/10 11:34:11;;;;;;;22.95;4.88;;;14.40;99.90;;;;;;5055040;28;20393;-87
2022/11/10 11:37:03;;;;;;;19.48;4.72;;;14.30;99.90;;;;;;5037868;28;20040;-88
2022/11/10 11:39:37;;;;;;;18.58;4.97;;;14.20;99.90;;;;;;5038705;28;20405;-88
2022/11/10 11:42:24;;;;;;;17.25;4.95;;;14.20;99.90;;;;;;5073363;28;20045;-88
2022/11/10 11:45:11;;;;;;;20.08;5.25;;;14.20;99.90;;;;;;5073758;28;20100;-87
2022/11/10 11:47:54;;;;;;;17.05;4.00;;;14.20;99.90;;;;;;5073889;28;20394;-87
2022/11/10 11:50:30;;;;;;;17.45;4.43;;;14.00;99.90;;;;;;5056165;28;20070;-87
2022/11/10 11:53:02;;;;;;;19.15;4.57;;;14.10;99.90;;;;;;5039439;28;20045;-87
2022/11/10 11:55:34;;;;;;;19.77;4.78;;;14.80;99.90;;;;;;5075792;28;20067;-88
2022/11/10 11:58:32;;;;;;;21.20;4.75;;;14.10;99.90;;;;;;5078098;28;20063;-88
2022/11/10 12:01:27;;;;;;;17.92;4.65;;;14.10;99.90;;;;;;5031475;28;20083;-88
2022/11/10 12:04:20;;;;;;;18.40;4.28;;;14.10;99.90;;;;;;5058571;28;20151;-88
2022/11/10 12:07:00;;;;;;;17.73;4.13;;;14.00;99.90;;;;;;5074948;28;20040;-88
2022/11/10 12:09:44;;;;;;;20.52;4.25;;;14.10;99.90;;;;;;5074636;28;20131;-88
2022/11/10 12:12:12;;;;;;;17.45;3.85;;;14.10;99.90;;;;;;5077083;28;20044;-88
2022/11/10 12:15:00;;;;;;;17.92;4.32;;;14.90;99.90;;;;;;5042464;28;20068;-88
2022/11/10 12:17:59;;;;;;;17.30;4.00;;;13.90;99.90;;;;;;5075057;28;20048;-88
2022/11/10 12:20:52;;;;;;;16.83;3.83;;;14.20;99.90;;;;;;5076000;28;20072;-88
2022/11/10 12:23:39;;;;;;;15.95;3.53;;;14.10;99.90;;;;;;5057729;28;20041;-88
2022/11/10 12:26:43;;;;;;;17.38;3.20;;;14.20;99.90;;;;;;5075898;28;20055;-88
2022/11/10 12:29:19;;;;;;;21.98;4.03;;;14.20;99.90;;;;;;5072135;28;20106;-87
2022/11/10 12:31:45;;;;;;;;;;;14.20;99.90;;;;;;5076151;28;20043;-88
2022/11/10 12:34:42;;;;;;;18.08;3.25;;;14.30;99.90;;;;;;5042876;28;20055;-88
2022/11/10 12:37:18;;;;;;;18.60;4.00;;;14.30;99.90;;;;;;4954480;28;20047;-88
2022/11/10 12:40:00;;;;;;;13.15;3.22;;;14.30;99.90;;;;;;5027330;28;20041;-88
2022/11/10 12:42:28;;;;;;;17.73;3.50;;;14.30;99.90;;;;;;5021441;28;20041;-88
2022/11/10 12:45:04;;;;;;;17.58;3.33;;;14.30;99.90;;;;;;5021453;28;20056;-89
2022/11/10 12:47:41;;;;;;;23.75;3.63;;;14.40;99.90;;;;;;5021885;28;20474;-88
2022/11/10 12:50:37;;;;;;;15.13;3.42;;;14.90;99.90;;;;;;5022252;28;20572;-87
2022/11/10 12:53:41;;;;;;;15.45;3.50;;;14.40;99.90;;;;;;5022019;28;20041;-88
2022/11/10 12:56:45;;;;;;;22.42;3.70;;;14.40;99.90;;;;;;5038857;28;20052;-88
2022/11/10 12:59:19;;;;;;;17.73;3.30;;;14.40;99.90;;;;;;4981641;28;20053;-88
2022/11/10 13:01:48;;;;;;;23.65;3.40;;;14.40;99.90;;;;;;5036093;28;20046;-88
2022/11/10 13:04:16;;;;;;;16.13;3.22;;;14.50;99.90;;;;;;5036080;28;20047;-88
2022/11/10 13:06:51;;;;;;;17.73;3.55;;;14.40;99.90;;;;;;5017920;28;20037;-89
2022/11/10 13:09:29;;;;;;;12.30;3.20;;;14.40;99.90;;;;;;5037014;28;20064;-88
2022/11/10 13:12:09;;;;;;;15.93;3.83;;;14.40;99.90;;;;;;5016412;28;20045;-88
2022/11/10 13:14:35;;;;;;;13.30;3.45;;;14.40;99.90;;;;;;5034705;28;20465;-88
2022/11/10 13:17:02;;;;;;;19.58;3.25;;;14.40;99.90;;;;;;5000819;28;20037;-89